createdAt,value
2018-07-13T00:01:32.362Z,97121.09
2018-07-13T00:03:59.503Z,97114.33
2018-07-13T00:06:26.657Z,97117.66
2018-07-13T00:08:53.793Z,97114.95
2018-07-13T00:11:21.013Z,97125.63
2018-07-13T00:14:24.628Z,97121.69
2018-07-13T00:16:53.048Z,97114.41
2018-07-13T00:19:20.840Z,97117.27
2018-07-13T00:21:48.012Z,97107.77
2018-07-13T00:24:15.348Z,97113.33
2018-07-13T00:26:42.536Z,97103.98
2018-07-13T00:29:10.148Z,97110.03
2018-07-13T00:31:38.325Z,97110.41
2018-07-13T00:34:05.596Z,97115.52
2018-07-13T00:36:32.796Z,97111.39
2018-07-13T00:38:59.928Z,97115.70
2018-07-13T00:41:27.091Z,97111.66
2018-07-13T00:43:54.517Z,97117.55
2018-07-13T00:46:22.013Z,97116.77
2018-07-13T00:48:49.236Z,97117.97
2018-07-13T00:51:16.449Z,97123.52
2018-07-13T00:53:43.897Z,97124.17
2018-07-13T00:56:11.062Z,97118.78
2018-07-13T00:58:38.212Z,97115.09
2018-07-13T01:01:05.420Z,97114.06
2018-07-13T01:03:32.600Z,97115.73
2018-07-13T01:05:59.796Z,97112.17
2018-07-13T01:08:26.956Z,97105.30
2018-07-13T01:10:54.160Z,97111.16
2018-07-13T01:13:21.359Z,97109.48
2018-07-13T01:15:48.493Z,97119.16
2018-07-13T01:18:22.316Z,97120.14
2018-07-13T01:20:49.489Z,97114.04
2018-07-13T01:23:16.680Z,97121.13
2018-07-13T01:25:43.847Z,97120.75
2018-07-13T01:28:10.956Z,97121.63
2018-07-13T01:30:38.112Z,97119.70
2018-07-13T01:33:05.620Z,97119.01
2018-07-13T01:35:32.875Z,97119.69
2018-07-13T01:38:00.163Z,97119.06
2018-07-13T01:40:27.324Z,97122.74
2018-07-13T01:42:54.456Z,97118.96
2018-07-13T01:45:21.611Z,97123.84
2018-07-13T01:47:48.752Z,97119.53
2018-07-13T01:50:16.032Z,97116.34
2018-07-13T01:52:43.267Z,97119.01
2018-07-13T01:55:10.392Z,97124.41
2018-07-13T01:57:37.516Z,97123.00
2018-07-13T02:00:05.398Z,97123.44
2018-07-13T02:02:32.576Z,97122.45
2018-07-13T02:04:59.760Z,97122.35
2018-07-13T02:07:26.921Z,97124.05
2018-07-13T02:09:55.032Z,97126.10
2018-07-13T02:12:22.248Z,97127.09
2018-07-13T02:14:49.757Z,97124.66
2018-07-13T02:17:16.879Z,97124.88
2018-07-13T02:19:44.069Z,97126.10
2018-07-13T02:22:11.269Z,97126.87
2018-07-13T02:24:38.404Z,97127.90
2018-07-13T02:27:05.515Z,97131.78
2018-07-13T02:29:32.687Z,97135.88
2018-07-13T02:31:59.860Z,97133.38
2018-07-13T02:34:26.991Z,97136.38
2018-07-13T02:36:54.152Z,97140.66
2018-07-13T02:39:21.307Z,97139.55
2018-07-13T02:41:48.421Z,97137.56
2018-07-13T02:44:15.568Z,97136.27
2018-07-13T02:46:42.704Z,97136.44
2018-07-13T02:49:09.854Z,97138.57
2018-07-13T02:51:36.972Z,97140.27
2018-07-13T02:54:04.248Z,97143.38
2018-07-13T02:56:31.412Z,97145.47
2018-07-13T02:58:58.549Z,97147.08
2018-07-13T03:01:25.723Z,97146.09
2018-07-13T03:03:52.865Z,97091.00
2018-07-13T03:06:20.023Z,97151.45
2018-07-13T03:08:47.145Z,97153.89
2018-07-13T03:11:14.297Z,97159.05
2018-07-13T03:13:41.401Z,97160.20
2018-07-13T03:16:08.565Z,97163.97
2018-07-13T03:18:35.668Z,97171.74
2018-07-13T03:21:02.787Z,97177.48
2018-07-13T03:23:29.944Z,97170.06
2018-07-13T03:25:57.045Z,97176.86
2018-07-13T03:28:24.188Z,97185.23
2018-07-13T03:30:51.329Z,97180.66
2018-07-13T03:33:18.577Z,97181.27
2018-07-13T03:35:45.724Z,97189.45
2018-07-13T03:38:12.856Z,97186.54
2018-07-13T03:40:40.030Z,97189.23
2018-07-13T03:43:07.187Z,97193.70
2018-07-13T03:45:34.332Z,97197.14
2018-07-13T03:48:01.440Z,97192.52
2018-07-13T03:50:28.637Z,97197.20
2018-07-13T03:52:55.786Z,97191.64
2018-07-13T03:55:22.904Z,97197.31
2018-07-13T03:57:50.020Z,97194.44
2018-07-13T04:00:17.214Z,97205.39
2018-07-13T04:02:44.407Z,97199.97
2018-07-13T04:05:11.619Z,97203.97
2018-07-13T04:07:38.716Z,97203.59
2018-07-13T04:10:05.871Z,97206.57
2018-07-13T04:12:33.032Z,97208.50
2018-07-13T04:15:00.208Z,97213.72
2018-07-13T04:17:27.340Z,97206.23
2018-07-13T04:19:54.504Z,97200.96
2018-07-13T04:22:21.659Z,97203.63
2018-07-13T04:24:48.848Z,97207.58
2018-07-13T04:27:16.004Z,97202.91
2018-07-13T04:29:43.185Z,97200.25
2018-07-13T04:32:10.330Z,97201.59
2018-07-13T04:34:37.488Z,97204.79
2018-07-13T04:37:04.669Z,97205.83
2018-07-13T04:39:31.816Z,97211.27
2018-07-13T04:41:58.912Z,97209.66
2018-07-13T04:44:26.058Z,97201.71
2018-07-13T04:46:53.260Z,97204.14
2018-07-13T04:49:20.436Z,97203.82
2018-07-13T04:51:47.585Z,97206.59
2018-07-13T04:54:14.789Z,97201.84
2018-07-13T04:56:41.932Z,97207.27
2018-07-13T04:59:09.153Z,97203.27
2018-07-13T05:01:36.329Z,97207.08
2018-07-13T05:04:03.480Z,97205.48
2018-07-13T05:06:30.657Z,97202.38
2018-07-13T05:08:57.812Z,97204.63
2018-07-13T05:11:24.959Z,97199.06
2018-07-13T05:13:52.118Z,97202.80
2018-07-13T05:16:19.600Z,97204.13
2018-07-13T05:18:46.756Z,97197.59
2018-07-13T05:21:13.943Z,97205.80
2018-07-13T05:23:41.123Z,97195.83
2018-07-13T05:26:08.518Z,97207.59
2018-07-13T05:28:35.757Z,97208.42
2018-07-13T05:31:03.076Z,97202.60
2018-07-13T05:33:30.360Z,97204.30
2018-07-13T05:35:57.532Z,97202.67
2018-07-13T05:38:24.721Z,97204.97
2018-07-13T05:40:51.956Z,97205.59
2018-07-13T05:43:19.169Z,97203.02
2018-07-13T05:45:46.444Z,97208.92
2018-07-13T05:48:13.967Z,97201.31
2018-07-13T05:50:41.160Z,97205.90
2018-07-13T05:53:08.312Z,97209.20
2018-07-13T05:55:35.483Z,97212.02
2018-07-13T05:58:02.616Z,97223.77
2018-07-13T06:00:29.785Z,97219.39
2018-07-13T06:02:56.921Z,97230.67
2018-07-13T06:05:24.140Z,97229.91
2018-07-13T06:07:51.440Z,97230.27
2018-07-13T06:10:18.688Z,97240.33
2018-07-13T06:12:45.839Z,97232.16
2018-07-13T06:15:12.991Z,97232.09
2018-07-13T06:17:40.144Z,97238.98
2018-07-13T06:20:08.033Z,97233.36
2018-07-13T06:22:35.272Z,97235.75
2018-07-13T06:25:02.465Z,97235.11
2018-07-13T06:27:29.584Z,97228.42
2018-07-13T06:29:56.743Z,97232.73
2018-07-13T06:32:23.914Z,97229.13
2018-07-13T06:34:51.136Z,97234.34
2018-07-13T06:37:18.305Z,97237.93
2018-07-13T06:39:45.491Z,97228.21
2018-07-13T06:42:12.659Z,97235.27
2018-07-13T06:44:39.852Z,97232.71
2018-07-13T06:47:06.961Z,97233.64
2018-07-13T06:49:34.092Z,97241.04
2018-07-13T06:52:01.261Z,97236.73
2018-07-13T06:54:28.416Z,97241.94
2018-07-13T06:56:55.698Z,97236.70
2018-07-13T06:59:22.796Z,97242.68
2018-07-13T07:01:50.068Z,97243.13
2018-07-13T07:04:29.581Z,97237.64
2018-07-13T07:07:00.421Z,97241.58
2018-07-13T07:09:27.761Z,97240.63
2018-07-13T07:13:06.928Z,97245.48
2018-07-13T07:15:34.118Z,97247.43
2018-07-13T07:18:01.311Z,97246.06
2018-07-13T07:20:28.471Z,97252.11
2018-07-13T07:22:55.720Z,97248.42
2018-07-13T07:25:22.932Z,97251.89
2018-07-13T07:27:50.077Z,97251.66
2018-07-13T07:30:17.306Z,97259.21
2018-07-13T07:32:44.736Z,97260.62
2018-07-13T07:35:11.844Z,97262.73
2018-07-13T07:37:39.068Z,97254.66
2018-07-13T07:40:06.292Z,97258.63
2018-07-13T07:42:33.661Z,97251.25
2018-07-13T07:45:01.044Z,97256.81
2018-07-13T07:47:28.224Z,97251.81
2018-07-13T07:49:55.712Z,97255.14
2018-07-13T07:52:22.776Z,97259.59
2018-07-13T07:54:49.900Z,97260.98
2018-07-13T07:57:17.080Z,97266.31
2018-07-13T07:59:44.692Z,97268.23
2018-07-13T08:02:11.872Z,97265.67
2018-07-13T08:04:39.084Z,97256.83
2018-07-13T08:07:06.704Z,97257.99
2018-07-13T08:09:33.341Z,97257.35
2018-07-13T08:12:00.448Z,97261.07
2018-07-13T08:14:27.587Z,97257.70
2018-07-13T08:16:54.732Z,97256.55
2018-07-13T08:19:21.845Z,97260.06
2018-07-13T08:21:49.164Z,97256.11
2018-07-13T08:24:18.336Z,97257.66
2018-07-13T08:26:49.254Z,97259.69
2018-07-13T08:29:18.423Z,97252.25
2018-07-13T08:31:45.552Z,97255.49
2018-07-13T08:34:12.707Z,97249.02
2018-07-13T08:36:39.888Z,97247.56
2018-07-13T08:39:07.906Z,97247.59
2018-07-13T08:41:35.131Z,97247.91
2018-07-13T08:44:02.413Z,97243.97
2018-07-13T08:46:29.544Z,97249.41
2018-07-13T08:48:56.705Z,97254.75
2018-07-13T08:51:24.062Z,97249.23
2018-07-13T08:53:51.209Z,97253.66
2018-07-13T08:56:18.423Z,97258.94
2018-07-13T08:58:45.627Z,97254.70
2018-07-13T09:01:12.776Z,97260.09
2018-07-13T09:03:40.028Z,97266.45
2018-07-13T09:06:07.180Z,97256.91
2018-07-13T09:08:34.372Z,97259.98
2018-07-13T09:11:01.562Z,97260.30
2018-07-13T09:13:28.704Z,97259.31
2018-07-13T09:15:55.931Z,97266.47
2018-07-13T09:18:23.943Z,97248.50
2018-07-13T09:20:51.070Z,97250.44
2018-07-13T09:23:18.236Z,97251.03
2018-07-13T09:25:45.378Z,97252.91
2018-07-13T09:28:12.477Z,97243.06
2018-07-13T09:30:39.659Z,97248.39
2018-07-13T09:33:06.855Z,97248.64
2018-07-13T09:35:34.048Z,97246.77
2018-07-13T09:38:01.279Z,97249.54
2018-07-13T09:40:28.456Z,97252.41
2018-07-13T09:42:56.647Z,97244.28
2018-07-13T09:45:23.797Z,97248.11
2018-07-13T09:47:51.036Z,97242.92
2018-07-13T09:50:18.252Z,97242.50
2018-07-13T09:52:45.441Z,97240.59
2018-07-13T09:55:12.576Z,97238.69
2018-07-13T09:57:39.774Z,97236.07
2018-07-13T10:00:09.152Z,97235.84
2018-07-13T10:02:36.337Z,97231.86
2018-07-13T10:05:04.032Z,97236.00
2018-07-13T10:07:31.236Z,97229.30
2018-07-13T10:09:58.371Z,97237.67
2018-07-13T10:12:25.566Z,97236.77
2018-07-13T10:14:52.704Z,97233.50
2018-07-13T10:17:19.925Z,97232.80
2018-07-13T10:19:47.124Z,97240.28
2018-07-13T10:22:16.923Z,97243.41
2018-07-13T10:24:44.661Z,97237.36
2018-07-13T10:27:13.491Z,97236.51
2018-07-13T10:29:46.448Z,97234.20
2018-07-13T10:32:13.664Z,97231.69
2018-07-13T10:34:40.833Z,97226.37
2018-07-13T10:37:08.344Z,97227.88
2018-07-13T10:39:35.553Z,97229.81
2018-07-13T10:42:02.824Z,97226.24
2018-07-13T10:44:30.013Z,97222.09
2018-07-13T10:46:57.385Z,97217.90
2018-07-13T10:49:31.516Z,97218.30
2018-07-13T10:51:58.684Z,97213.91
2018-07-13T10:54:25.856Z,97214.59
2018-07-13T10:56:52.986Z,97213.02
2018-07-13T10:59:20.150Z,97208.61
2018-07-13T11:01:47.312Z,97202.70
2018-07-13T11:04:14.500Z,97197.16
2018-07-13T11:06:42.453Z,97199.22
2018-07-13T11:09:10.271Z,97204.83
2018-07-13T11:11:37.468Z,97193.55
2018-07-13T11:14:04.672Z,97190.78
2018-07-13T11:16:31.885Z,97194.70
2018-07-13T11:18:59.089Z,97196.98
2018-07-13T11:21:26.419Z,97191.78
2018-07-13T11:23:53.528Z,97187.33
2018-07-13T11:26:20.689Z,97181.22
2018-07-13T11:28:47.808Z,97184.94
2018-07-13T11:31:15.208Z,97184.06
2018-07-13T11:33:42.377Z,97179.59
2018-07-13T11:36:09.521Z,97181.49
2018-07-13T11:38:36.677Z,97177.28
2018-07-13T11:41:03.883Z,97174.31
2018-07-13T11:43:31.061Z,97175.92
2018-07-13T11:45:58.205Z,97170.06
2018-07-13T11:48:25.324Z,97169.09
2018-07-13T11:50:52.456Z,97162.10
2018-07-13T11:53:19.676Z,97164.34
2018-07-13T11:55:46.875Z,97165.06
2018-07-13T11:58:14.093Z,97162.61
2018-07-13T12:00:41.461Z,97156.16
2018-07-13T12:03:08.643Z,97157.13
2018-07-13T12:05:35.839Z,97160.56
2018-07-13T12:08:03.072Z,97163.06
2018-07-13T12:10:30.210Z,97162.05
2018-07-13T12:12:57.409Z,97154.94
2018-07-13T12:15:24.565Z,97157.30
2018-07-13T12:17:51.701Z,97150.67
2018-07-13T12:20:18.877Z,97151.73
2018-07-13T12:22:46.056Z,97154.70
2018-07-13T12:25:13.348Z,97147.88
2018-07-13T12:27:40.520Z,97151.15
2018-07-13T12:30:07.737Z,97146.88
2018-07-13T12:32:41.815Z,97149.85
2018-07-13T12:35:09.001Z,97149.80
2018-07-13T12:37:36.222Z,97151.34
2018-07-13T12:40:03.877Z,97149.98
2018-07-13T12:42:31.067Z,97144.77
2018-07-13T12:44:58.208Z,97140.48
2018-07-13T12:47:25.370Z,97138.16
2018-07-13T12:49:52.534Z,97136.85
2018-07-13T12:52:19.700Z,97137.05
2018-07-13T12:54:46.892Z,97132.52
2018-07-13T12:57:14.060Z,97132.36
2018-07-13T12:59:41.273Z,97132.56
2018-07-13T13:02:08.467Z,97129.13
2018-07-13T13:04:35.636Z,97125.90
2018-07-13T13:07:02.871Z,97134.23
2018-07-13T13:09:30.093Z,97134.06
2018-07-13T13:11:57.268Z,97143.59
2018-07-13T13:14:24.440Z,97135.96
2018-07-13T13:16:51.629Z,97126.20
2018-07-13T13:19:18.847Z,97131.48
2018-07-13T13:21:46.096Z,97133.89
2018-07-13T13:24:13.276Z,97131.48
2018-07-13T13:26:40.456Z,97126.17
2018-07-13T13:29:07.662Z,97133.84
2018-07-13T13:31:34.900Z,97132.83
2018-07-13T13:34:02.095Z,97125.41
2018-07-13T13:36:29.216Z,97121.64
2018-07-13T13:38:56.367Z,97123.48
2018-07-13T13:41:23.541Z,97124.77
2018-07-13T13:43:50.743Z,97126.53
2018-07-13T13:46:17.883Z,97125.55
2018-07-13T13:48:45.084Z,97118.36
2018-07-13T13:51:12.268Z,97121.84
2018-07-13T13:53:39.478Z,97107.50
2018-07-13T13:56:06.635Z,97115.75
2018-07-13T13:58:33.808Z,97121.16
2018-07-13T14:01:00.959Z,97125.61
2018-07-13T14:03:28.068Z,97121.58
2018-07-13T14:05:55.220Z,97121.98
2018-07-13T14:08:22.383Z,97123.84
2018-07-13T14:10:49.618Z,97118.65
2018-07-13T14:13:16.780Z,97118.63
2018-07-13T14:15:43.972Z,97109.92
2018-07-13T14:18:11.133Z,97118.56
2018-07-13T14:20:38.329Z,97108.78
2018-07-13T14:23:05.587Z,97115.54
2018-07-13T14:25:32.797Z,97110.26
2018-07-13T14:28:00.002Z,97110.55
2018-07-13T14:30:27.224Z,97114.69
2018-07-13T14:32:54.350Z,97121.83
2018-07-13T14:35:21.531Z,97121.38
2018-07-13T14:37:48.984Z,97121.14
2018-07-13T14:40:16.263Z,97132.28
2018-07-13T14:42:43.380Z,97123.87
2018-07-13T14:45:10.523Z,97122.32
2018-07-13T14:47:37.740Z,97130.56
2018-07-13T14:50:05.130Z,97122.55
2018-07-13T14:52:32.351Z,97114.22
2018-07-13T14:54:59.537Z,97133.30
2018-07-13T14:57:26.767Z,97147.91
2018-07-13T14:59:53.889Z,97152.89
2018-07-13T15:02:21.098Z,97146.37
2018-07-13T15:04:48.299Z,97143.87
2018-07-13T15:07:15.455Z,97136.94
2018-07-13T15:09:42.657Z,97138.67
2018-07-13T15:12:09.853Z,97135.59
2018-07-13T15:14:37.012Z,97158.88
2018-07-13T15:17:04.262Z,97162.79
2018-07-13T15:19:31.409Z,97165.44
2018-07-13T15:21:58.562Z,97168.98
2018-07-13T15:24:25.765Z,97168.73
2018-07-13T15:26:52.950Z,97172.19
2018-07-13T15:29:20.115Z,97178.31
2018-07-13T15:31:47.257Z,97178.91
2018-07-13T15:34:14.484Z,97173.63
2018-07-13T15:36:41.671Z,97179.00
2018-07-13T15:39:09.085Z,97179.00
2018-07-13T15:41:36.265Z,97176.31
2018-07-13T15:44:03.761Z,97173.49
2018-07-13T15:46:30.967Z,97168.23
2018-07-13T15:48:58.165Z,97166.23
2018-07-13T15:51:25.373Z,97160.18
2018-07-13T15:53:52.524Z,97156.66
2018-07-13T15:56:19.667Z,97156.77
2018-07-13T15:58:46.937Z,97151.32
2018-07-13T16:01:14.068Z,97150.00
2018-07-13T16:03:41.249Z,97141.38
2018-07-13T16:06:08.421Z,97139.64
2018-07-13T16:08:35.679Z,97139.97
2018-07-13T16:11:02.798Z,97139.80
2018-07-13T16:13:30.049Z,97128.13
2018-07-13T16:15:57.233Z,97130.64
2018-07-13T16:18:24.401Z,97130.92
2018-07-13T16:20:51.647Z,97124.59
2018-07-13T16:23:18.816Z,97126.13
2018-07-13T16:25:45.960Z,97128.06
2018-07-13T16:28:13.156Z,97125.59
2018-07-13T16:30:40.350Z,97120.89
2018-07-13T16:33:07.479Z,97118.13
2018-07-13T16:35:34.872Z,97119.84
2018-07-13T16:38:02.059Z,97119.57
2018-07-13T16:40:29.291Z,97115.41
2018-07-13T16:42:56.475Z,97120.91
2018-07-13T16:45:23.676Z,97120.47
2018-07-13T16:47:50.825Z,97119.33
2018-07-13T16:50:17.987Z,97118.95
2018-07-13T16:52:45.135Z,97110.66
2018-07-13T16:55:12.364Z,97112.30
2018-07-13T16:57:39.497Z,97105.29
2018-07-13T17:00:06.664Z,97110.02
2018-07-13T17:02:33.804Z,97110.03
2018-07-13T17:05:00.951Z,97104.34
2018-07-13T17:07:28.149Z,97107.00
2018-07-13T17:09:55.300Z,97105.20
2018-07-13T17:12:22.420Z,97109.88
2018-07-13T17:14:49.639Z,97106.77
2018-07-13T17:17:16.808Z,97101.69
2018-07-13T17:19:44.209Z,97105.42
2018-07-13T17:22:11.383Z,97098.11
2018-07-13T17:24:38.571Z,97102.94
2018-07-13T17:27:05.772Z,97106.57
2018-07-13T17:29:32.935Z,97106.06
2018-07-13T17:32:00.185Z,97108.98
2018-07-13T17:34:27.363Z,97107.84
2018-07-13T17:36:54.561Z,97104.44
2018-07-13T17:41:55.805Z,97098.40
2018-07-13T17:44:22.985Z,97106.73
2018-07-13T17:46:50.173Z,97103.98
2018-07-13T17:49:17.394Z,97108.23
2018-07-13T17:51:44.585Z,97108.84
2018-07-13T17:54:11.764Z,97105.55
2018-07-13T17:56:38.919Z,97107.67
2018-07-13T17:59:06.133Z,97106.52
2018-07-13T18:01:33.264Z,97099.56
2018-07-13T18:06:34.296Z,97096.50
2018-07-13T18:09:01.440Z,97098.23
2018-07-13T18:11:28.641Z,97100.55
2018-07-13T18:16:48.784Z,97105.33
2018-07-13T18:19:15.963Z,97101.88
2018-07-13T18:21:43.119Z,97109.98
2018-07-13T18:24:10.429Z,97115.17
2018-07-13T18:26:37.629Z,97114.41
2018-07-13T18:29:04.846Z,97116.71
2018-07-13T18:31:32.014Z,97116.52
2018-07-13T18:33:59.219Z,97123.62
2018-07-13T18:36:26.433Z,97117.28
2018-07-13T18:38:53.585Z,97116.23
2018-07-13T18:41:20.812Z,97117.78
2018-07-13T18:43:48.045Z,97116.38
2018-07-13T18:46:15.236Z,97115.72
2018-07-13T18:48:42.386Z,97121.98
2018-07-13T18:51:09.992Z,97121.78
2018-07-13T18:53:37.439Z,97117.44
2018-07-13T18:56:04.722Z,97111.81
2018-07-13T18:58:31.892Z,97116.88
2018-07-13T19:00:59.049Z,97121.73
2018-07-13T19:03:26.247Z,97121.83
2018-07-13T19:05:53.431Z,97117.34
2018-07-13T19:08:20.674Z,97120.42
2018-07-13T19:10:47.868Z,97127.32
2018-07-13T19:13:15.161Z,97123.48
2018-07-13T19:15:42.364Z,97124.06
2018-07-13T19:18:09.597Z,97124.51
2018-07-13T19:20:36.835Z,97133.22
2018-07-13T19:23:04.220Z,97132.03
2018-07-13T19:25:31.374Z,97134.15
2018-07-13T19:27:58.567Z,97136.17
2018-07-13T19:30:25.844Z,97135.23
2018-07-13T19:32:53.123Z,97141.58
2018-07-13T19:35:20.330Z,97146.98
2018-07-13T19:37:47.525Z,97150.41
2018-07-13T19:40:14.681Z,97150.87
2018-07-13T19:42:41.935Z,97152.36
2018-07-13T19:45:09.133Z,97160.64
2018-07-13T19:47:36.386Z,97155.25
2018-07-13T19:50:04.519Z,97162.56
2018-07-13T19:52:31.683Z,97164.71
2018-07-13T19:54:58.895Z,97175.02
2018-07-13T19:57:26.169Z,97176.34
2018-07-13T19:59:53.268Z,97172.00
2018-07-13T20:02:20.448Z,97179.83
2018-07-13T20:04:47.656Z,97180.60
2018-07-13T20:07:14.809Z,97179.77
2018-07-13T20:09:41.986Z,97178.31
2018-07-13T20:12:09.174Z,97180.55
2018-07-13T20:17:10.439Z,97179.75
2018-07-13T20:19:37.645Z,97181.13
2018-07-13T20:22:04.860Z,97174.91
2018-07-13T20:24:32.061Z,97176.49
2018-07-13T20:26:59.270Z,97180.25
2018-07-13T20:29:26.493Z,97180.16
2018-07-13T20:31:53.632Z,97182.14
2018-07-13T20:34:20.802Z,97179.31
2018-07-13T20:36:47.955Z,97188.62
2018-07-13T20:39:15.405Z,97187.36
2018-07-13T20:41:42.699Z,97184.42
2018-07-13T20:44:09.900Z,97188.21
2018-07-13T20:46:37.101Z,97187.87
2018-07-13T20:49:04.327Z,97190.89
2018-07-13T20:51:31.480Z,97182.38
2018-07-13T20:53:58.676Z,97181.94
2018-07-13T20:56:25.823Z,97184.98
2018-07-13T20:58:53.169Z,97180.47
2018-07-13T21:01:27.157Z,97184.83
2018-07-13T21:03:54.307Z,97180.83
2018-07-13T21:06:21.403Z,97184.47
2018-07-13T21:08:48.560Z,97185.33
2018-07-13T21:11:15.712Z,97189.40
2018-07-13T21:13:42.901Z,97183.84
2018-07-13T21:16:10.096Z,97186.25
2018-07-13T21:18:37.294Z,97192.44
2018-07-13T21:21:04.509Z,97187.92
2018-07-13T21:23:31.639Z,97195.95
2018-07-13T21:25:58.748Z,97204.02
2018-07-13T21:28:25.909Z,97206.58
2018-07-13T21:30:53.057Z,97203.62
2018-07-13T21:33:20.181Z,97206.16
2018-07-13T21:35:47.347Z,97205.16
2018-07-13T21:38:14.480Z,97204.39
2018-07-13T21:40:41.653Z,97209.70
2018-07-13T21:43:08.802Z,97213.33
2018-07-13T21:45:42.828Z,97214.67
2018-07-13T21:48:10.029Z,97210.35
2018-07-13T21:50:37.197Z,97211.13
2018-07-13T21:53:04.332Z,97204.98
2018-07-13T21:55:31.473Z,97211.22
2018-07-13T21:57:58.676Z,97213.84
2018-07-13T22:00:25.880Z,97211.98
2018-07-13T22:02:53.114Z,97213.02
2018-07-13T22:05:20.248Z,97207.12
2018-07-13T22:07:47.480Z,97204.73
2018-07-13T22:10:14.656Z,97197.93
2018-07-13T22:12:41.785Z,97203.70
2018-07-13T22:15:08.970Z,97199.72
2018-07-13T22:17:36.177Z,97195.92
2018-07-13T22:20:04.012Z,97201.69
2018-07-13T22:22:31.172Z,97197.67
2018-07-13T22:24:58.393Z,97206.44
2018-07-13T22:27:25.545Z,97211.13
2018-07-13T22:29:52.711Z,97212.19
2018-07-13T22:32:19.828Z,97215.34
2018-07-13T22:34:46.948Z,97216.34
2018-07-13T22:37:14.112Z,97220.91
2018-07-13T22:39:41.276Z,97218.32
2018-07-13T22:42:08.450Z,97224.34
2018-07-13T22:44:35.600Z,97223.24
2018-07-13T22:47:02.832Z,97221.48
2018-07-13T22:49:29.969Z,97218.75
2018-07-13T22:51:57.156Z,97219.28
2018-07-13T22:54:24.299Z,97220.14
2018-07-13T22:56:51.471Z,97219.97
2018-07-13T22:59:18.643Z,97225.22
2018-07-13T23:01:45.767Z,97227.20
2018-07-13T23:04:12.925Z,97231.94
2018-07-13T23:06:40.101Z,97246.86
2018-07-13T23:09:07.596Z,97243.56
2018-07-13T23:11:34.696Z,97227.37
2018-07-13T23:14:01.865Z,97228.11
2018-07-13T23:16:29.044Z,97225.82
2018-07-13T23:18:56.450Z,97225.56
2018-07-13T23:21:23.582Z,97227.53
2018-07-13T23:23:50.782Z,97223.59
2018-07-13T23:26:17.936Z,97227.16
2018-07-13T23:28:45.065Z,97232.09
2018-07-13T23:31:12.175Z,97228.00
2018-07-13T23:33:39.393Z,97225.02
2018-07-13T23:36:06.541Z,97222.45
2018-07-13T23:38:33.720Z,97214.16
2018-07-13T23:41:00.881Z,97212.58
2018-07-13T23:43:27.993Z,97208.89
2018-07-13T23:45:55.262Z,97210.54
2018-07-13T23:48:22.388Z,97209.17
2018-07-13T23:50:49.534Z,97208.18
2018-07-13T23:53:16.633Z,97208.77
2018-07-13T23:55:43.784Z,97211.34
2018-07-13T23:58:10.896Z,97204.55
